createdAt,value
2022-08-14T00:00:25.480Z,24.28
2022-08-14T00:01:25.513Z,24.20
2022-08-14T00:02:27.153Z,24.22
2022-08-14T00:03:29.500Z,24.20
2022-08-14T00:04:32.206Z,24.10
2022-08-14T00:05:25.402Z,24.16
2022-08-14T00:06:28.637Z,24.13
2022-08-14T00:07:25.368Z,24.16
2022-08-14T00:08:45.019Z,24.12
2022-08-14T00:09:25.335Z,24.21
2022-08-14T00:10:50.284Z,24.18
2022-08-14T00:11:25.304Z,24.15
2022-08-14T00:12:33.900Z,24.16
2022-08-14T00:13:25.271Z,24.08
2022-08-14T00:14:25.253Z,24.03
2022-08-14T00:15:25.240Z,24.06
2022-08-14T00:16:41.576Z,24.06
2022-08-14T00:17:25.203Z,23.95
2022-08-14T00:18:31.022Z,24.02
2022-08-14T00:19:25.168Z,23.97
2022-08-14T00:20:30.486Z,24.00
2022-08-14T00:21:31.038Z,24.06
2022-08-14T00:22:56.931Z,23.83
2022-08-14T00:23:25.104Z,23.88
2022-08-14T00:24:29.026Z,23.73
2022-08-14T00:25:25.072Z,23.70
2022-08-14T00:26:25.060Z,23.69
2022-08-14T00:27:25.045Z,23.73
2022-08-14T00:28:25.022Z,23.72
2022-08-14T00:29:25.462Z,23.68
2022-08-14T00:30:24.990Z,23.79
2022-08-14T00:31:35.387Z,23.65
2022-08-14T00:32:50.284Z,23.65
2022-08-14T00:33:52.019Z,23.70
2022-08-14T00:34:37.634Z,23.70
2022-08-14T00:36:34.125Z,23.63
2022-08-14T00:36:36.539Z,23.60
2022-08-14T00:37:24.875Z,23.61
2022-08-14T00:38:24.862Z,23.61
2022-08-14T00:39:24.879Z,23.57
2022-08-14T00:40:32.926Z,23.46
2022-08-14T00:41:24.806Z,23.46
2022-08-14T00:42:54.894Z,23.50
2022-08-14T00:43:24.775Z,23.42
2022-08-14T00:44:32.095Z,23.43
2022-08-14T00:45:24.740Z,23.40
2022-08-14T00:46:32.347Z,23.43
2022-08-14T00:47:24.709Z,23.48
2022-08-14T00:48:34.010Z,23.43
2022-08-14T00:49:24.675Z,23.42
2022-08-14T00:50:24.660Z,23.51
2022-08-14T00:51:24.643Z,23.46
2022-08-14T00:52:24.626Z,23.48
2022-08-14T00:53:24.609Z,23.43
2022-08-14T00:54:24.595Z,23.47
2022-08-14T00:55:24.577Z,23.47
2022-08-14T00:56:24.563Z,23.39
2022-08-14T00:57:24.541Z,23.43
2022-08-14T00:58:32.521Z,23.46
2022-08-14T00:59:24.612Z,23.46
2022-08-14T01:00:37.024Z,23.38
2022-08-14T01:01:24.560Z,23.33
2022-08-14T01:02:24.459Z,23.38
2022-08-14T01:03:24.443Z,23.32
2022-08-14T01:04:51.258Z,23.39
2022-08-14T01:05:24.409Z,23.23
2022-08-14T01:06:24.393Z,23.20
2022-08-14T01:07:24.382Z,23.23
2022-08-14T01:08:51.384Z,23.20
2022-08-14T01:09:24.346Z,23.22
2022-08-14T01:10:24.324Z,23.20
2022-08-14T01:11:24.309Z,23.22
2022-08-14T01:12:27.166Z,23.23
2022-08-14T01:13:24.276Z,23.22
2022-08-14T01:14:25.627Z,23.20
2022-08-14T01:15:31.532Z,23.20
2022-08-14T01:16:27.979Z,23.16
2022-08-14T01:17:24.219Z,23.20
2022-08-14T01:18:24.201Z,23.22
2022-08-14T01:19:24.178Z,23.22
2022-08-14T01:20:27.251Z,23.17
2022-08-14T01:21:24.195Z,23.15
2022-08-14T01:22:26.934Z,23.15
2022-08-14T01:23:24.108Z,23.16
2022-08-14T01:24:30.774Z,23.17
2022-08-14T01:25:24.077Z,23.19
2022-08-14T01:26:35.171Z,23.17
2022-08-14T01:27:24.262Z,23.15
2022-08-14T01:28:24.023Z,23.22
2022-08-14T01:29:36.416Z,23.15
2022-08-14T01:30:23.990Z,23.15
2022-08-14T01:31:23.979Z,23.16
2022-08-14T01:32:23.956Z,23.20
2022-08-14T01:33:23.942Z,23.15
2022-08-14T01:35:20.411Z,23.10
2022-08-14T01:36:05.127Z,23.12
2022-08-14T01:36:23.919Z,23.05
2022-08-14T01:37:23.876Z,23.01
2022-08-14T01:38:23.853Z,22.97
2022-08-14T01:39:23.894Z,23.00
2022-08-14T01:40:25.457Z,23.04
2022-08-14T01:41:30.094Z,22.94
2022-08-14T01:42:31.110Z,22.98
2022-08-14T01:43:26.556Z,22.86
2022-08-14T01:44:32.059Z,22.82
2022-08-14T01:45:25.428Z,22.90
2022-08-14T01:46:24.445Z,22.97
2022-08-14T01:47:23.705Z,22.88
2022-08-14T01:48:23.690Z,22.82
2022-08-14T01:49:23.671Z,22.77
2022-08-14T01:50:26.638Z,22.77
2022-08-14T01:51:23.638Z,22.60
2022-08-14T01:52:34.406Z,22.76
2022-08-14T01:53:23.601Z,22.64
2022-08-14T01:54:23.585Z,22.62
2022-08-14T01:55:23.571Z,22.58
2022-08-14T01:56:23.550Z,22.61
2022-08-14T01:57:23.534Z,22.55
2022-08-14T01:58:28.965Z,22.51
2022-08-14T01:59:23.500Z,22.57
2022-08-14T02:00:23.483Z,22.40
2022-08-14T02:01:23.481Z,22.35
2022-08-14T02:02:23.452Z,22.47
2022-08-14T02:03:23.433Z,22.39
2022-08-14T02:04:56.026Z,22.43
2022-08-14T02:05:23.401Z,22.40
2022-08-14T02:06:32.174Z,22.33
2022-08-14T02:07:34.663Z,22.36
2022-08-14T02:08:35.515Z,22.43
2022-08-14T02:09:23.330Z,22.46
2022-08-14T02:10:26.336Z,22.51
2022-08-14T02:11:23.301Z,22.51
2022-08-14T02:12:26.492Z,22.51
2022-08-14T02:13:23.264Z,22.58
2022-08-14T02:14:31.622Z,22.54
2022-08-14T02:15:23.229Z,22.58
2022-08-14T02:16:23.212Z,22.47
2022-08-14T02:17:23.194Z,22.47
2022-08-14T02:18:23.202Z,22.58
2022-08-14T02:19:23.162Z,22.55
2022-08-14T02:20:23.681Z,22.61
2022-08-14T02:21:23.745Z,22.46
2022-08-14T02:22:28.794Z,22.35
2022-08-14T02:23:29.082Z,22.42
2022-08-14T02:24:40.195Z,22.45
2022-08-14T02:25:23.062Z,22.39
2022-08-14T02:26:29.353Z,22.35
2022-08-14T02:28:26.016Z,22.40
2022-08-14T02:28:57.295Z,22.39
2022-08-14T02:29:22.993Z,22.39
2022-08-14T02:30:22.973Z,22.39
2022-08-14T02:31:28.369Z,22.37
2022-08-14T02:32:30.507Z,22.37
2022-08-14T02:33:22.923Z,22.35
2022-08-14T02:34:26.365Z,22.31
2022-08-14T02:35:22.887Z,22.35
2022-08-14T02:37:02.859Z,22.37
2022-08-14T02:37:22.856Z,22.39
2022-08-14T02:38:30.348Z,22.37
2022-08-14T02:39:22.857Z,22.40
2022-08-14T02:40:32.577Z,22.40
2022-08-14T02:41:22.786Z,22.37
2022-08-14T02:42:23.617Z,22.45
2022-08-14T02:43:22.879Z,22.37
2022-08-14T02:44:29.885Z,22.42
2022-08-14T02:45:22.718Z,22.37
2022-08-14T02:46:26.944Z,22.37
2022-08-14T02:47:22.685Z,22.42
2022-08-14T02:49:02.726Z,22.45
2022-08-14T02:49:25.331Z,22.33
2022-08-14T02:50:22.627Z,22.36
2022-08-14T02:51:22.615Z,22.37
2022-08-14T02:52:55.277Z,22.43
2022-08-14T02:53:22.581Z,22.37
2022-08-14T02:54:22.560Z,22.33
2022-08-14T02:55:22.548Z,22.42
2022-08-14T02:57:13.588Z,22.37
2022-08-14T02:57:39.922Z,22.25
2022-08-14T02:58:30.302Z,22.36
2022-08-14T02:59:22.477Z,22.35
2022-08-14T03:00:22.457Z,22.33
2022-08-14T03:01:22.484Z,22.21
2022-08-14T03:02:49.030Z,22.22
2022-08-14T03:03:22.409Z,22.24
2022-08-14T03:04:22.390Z,22.27
2022-08-14T03:05:22.375Z,22.20
2022-08-14T03:06:35.227Z,22.17
2022-08-14T03:07:22.342Z,22.09
2022-08-14T03:08:22.318Z,22.10
2022-08-14T03:09:22.302Z,22.07
2022-08-14T03:10:26.504Z,22.05
2022-08-14T03:11:22.269Z,21.98
2022-08-14T03:12:31.063Z,21.88
2022-08-14T03:13:22.239Z,21.98
2022-08-14T03:14:22.216Z,21.99
2022-08-14T03:15:22.204Z,21.91
2022-08-14T03:16:26.837Z,21.94
2022-08-14T03:17:22.393Z,21.86
2022-08-14T03:18:22.149Z,21.77
2022-08-14T03:19:22.133Z,21.72
2022-08-14T03:20:22.324Z,21.75
2022-08-14T03:21:22.099Z,21.75
2022-08-14T03:22:22.081Z,21.80
2022-08-14T03:23:22.063Z,21.82
2022-08-14T03:24:23.285Z,21.72
2022-08-14T03:25:22.027Z,21.67
2022-08-14T03:26:29.734Z,21.67
2022-08-14T03:27:21.991Z,21.71
2022-08-14T03:28:29.524Z,21.67
2022-08-14T03:29:21.957Z,21.65
2022-08-14T03:30:23.399Z,21.74
2022-08-14T03:31:21.975Z,21.75
2022-08-14T03:32:30.259Z,21.77
2022-08-14T03:33:21.889Z,21.77
2022-08-14T03:34:24.596Z,21.77
2022-08-14T03:35:21.856Z,21.82
2022-08-14T03:37:37.467Z,21.79
2022-08-14T03:37:39.003Z,21.75
2022-08-14T03:39:14.960Z,21.84
2022-08-14T03:39:24.068Z,21.84
2022-08-14T03:40:21.766Z,21.86
2022-08-14T03:41:23.339Z,21.84
2022-08-14T03:42:21.732Z,21.86
2022-08-14T03:43:21.723Z,21.86
2022-08-14T03:45:19.031Z,21.86
2022-08-14T03:45:34.984Z,21.83
2022-08-14T03:46:38.947Z,21.91
2022-08-14T03:47:21.646Z,21.88
2022-08-14T03:48:30.139Z,21.83
2022-08-14T03:49:24.319Z,21.88
2022-08-14T03:50:30.766Z,21.83
2022-08-14T03:51:21.576Z,21.83
2022-08-14T03:52:40.865Z,21.79
2022-08-14T03:53:21.540Z,21.75
2022-08-14T03:54:21.521Z,21.77
2022-08-14T03:55:21.505Z,21.77
2022-08-14T03:56:21.490Z,21.83
2022-08-14T03:57:22.731Z,21.74
2022-08-14T03:58:23.763Z,21.69
2022-08-14T03:59:21.436Z,21.69
2022-08-14T04:00:40.297Z,21.74
2022-08-14T04:01:21.447Z,21.71
2022-08-14T04:02:32.315Z,21.74
2022-08-14T04:03:23.487Z,21.68
2022-08-14T04:04:21.346Z,21.68
2022-08-14T04:05:21.330Z,21.71
2022-08-14T04:06:21.312Z,21.74
2022-08-14T04:07:21.299Z,21.67
2022-08-14T04:08:29.558Z,21.64
2022-08-14T04:09:21.261Z,21.62
2022-08-14T04:10:31.617Z,21.59
2022-08-14T04:11:21.227Z,21.56
2022-08-14T04:12:26.570Z,21.53
2022-08-14T04:13:21.191Z,21.59
2022-08-14T04:14:21.172Z,21.56
2022-08-14T04:15:21.158Z,21.62
2022-08-14T04:16:21.137Z,21.62
2022-08-14T04:17:21.121Z,21.68
2022-08-14T04:18:21.103Z,21.65
2022-08-14T04:19:21.087Z,21.71
2022-08-14T04:20:25.780Z,21.69
2022-08-14T04:21:21.054Z,21.71
2022-08-14T04:22:21.963Z,21.75
2022-08-14T04:23:23.745Z,21.86
2022-08-14T04:24:20.995Z,21.86
2022-08-14T04:25:20.980Z,21.86
2022-08-14T04:26:27.511Z,21.86
2022-08-14T04:27:20.945Z,21.84
2022-08-14T04:29:08.463Z,21.90
2022-08-14T04:29:20.914Z,21.90
2022-08-14T04:30:32.516Z,21.86
2022-08-14T04:32:59.194Z,21.84
2022-08-14T04:33:00.208Z,21.86
2022-08-14T04:33:21.217Z,21.82
2022-08-14T04:34:27.899Z,21.83
2022-08-14T04:35:23.696Z,21.91
2022-08-14T04:36:20.786Z,21.80
2022-08-14T04:37:24.782Z,21.80
2022-08-14T04:38:36.440Z,21.80
2022-08-14T04:39:20.752Z,21.79
2022-08-14T04:40:20.722Z,21.83
2022-08-14T04:41:20.700Z,21.83
2022-08-14T04:42:20.681Z,21.91
2022-08-14T04:43:20.882Z,21.83
2022-08-14T04:44:36.084Z,21.82
2022-08-14T04:45:20.634Z,21.90
2022-08-14T04:46:56.403Z,21.88
2022-08-14T04:47:20.596Z,21.86
2022-08-14T04:48:36.626Z,21.86
2022-08-14T04:49:20.563Z,21.88
2022-08-14T04:50:25.865Z,21.91
2022-08-14T04:51:20.531Z,21.83
2022-08-14T04:52:23.333Z,21.84
2022-08-14T04:53:23.233Z,21.84
2022-08-14T04:54:20.476Z,21.86
2022-08-14T04:55:20.457Z,21.92
2022-08-14T04:56:33.708Z,21.98
2022-08-14T04:57:20.421Z,21.84
2022-08-14T04:58:21.889Z,21.83
2022-08-14T04:59:20.386Z,21.96
2022-08-14T05:00:20.368Z,21.82
2022-08-14T05:01:20.353Z,21.88
2022-08-14T05:02:20.380Z,21.90
2022-08-14T05:03:20.316Z,22.03
2022-08-14T05:04:20.890Z,21.86
2022-08-14T05:05:20.282Z,21.90
2022-08-14T05:06:37.964Z,21.94
2022-08-14T05:07:20.245Z,22.03
2022-08-14T05:08:31.936Z,21.90
2022-08-14T05:09:20.211Z,21.99
2022-08-14T05:10:21.962Z,21.98
2022-08-14T05:11:20.174Z,22.00
2022-08-14T05:13:14.319Z,21.99
2022-08-14T05:13:20.240Z,22.03
2022-08-14T05:14:43.446Z,22.07
2022-08-14T05:15:20.109Z,21.98
2022-08-14T05:16:20.089Z,22.07
2022-08-14T05:17:20.072Z,22.07
2022-08-14T05:19:17.269Z,22.06
2022-08-14T05:19:27.038Z,22.03
2022-08-14T05:21:56.831Z,22.05
2022-08-14T05:21:58.100Z,22.06
2022-08-14T05:22:19.986Z,22.02
2022-08-14T05:23:19.967Z,22.06
2022-08-14T05:24:19.946Z,21.99
2022-08-14T05:25:19.927Z,22.02
2022-08-14T05:26:19.911Z,22.09
2022-08-14T05:27:19.919Z,22.12
2022-08-14T05:28:20.400Z,22.09
2022-08-14T05:29:19.858Z,22.07
2022-08-14T05:30:19.842Z,22.09
2022-08-14T05:31:20.529Z,22.14
2022-08-14T05:32:19.807Z,22.15
2022-08-14T05:33:19.787Z,22.17
2022-08-14T05:34:19.771Z,22.12
2022-08-14T05:35:19.753Z,22.12
2022-08-14T05:36:19.735Z,22.14
2022-08-14T05:37:19.717Z,22.15
2022-08-14T05:38:22.397Z,22.00
2022-08-14T05:39:19.768Z,22.06
2022-08-14T05:40:19.665Z,22.06
2022-08-14T05:41:19.651Z,22.06
2022-08-14T05:42:21.928Z,22.12
2022-08-14T05:43:19.612Z,22.02
2022-08-14T05:44:19.594Z,22.00
2022-08-14T05:45:19.576Z,22.09
2022-08-14T05:46:20.786Z,22.10
2022-08-14T05:47:19.542Z,22.15
2022-08-14T05:48:32.902Z,22.21
2022-08-14T05:49:19.506Z,22.12
2022-08-14T05:50:19.948Z,22.18
2022-08-14T05:51:19.473Z,22.22
2022-08-14T05:52:26.430Z,22.21
2022-08-14T05:53:19.438Z,22.18
2022-08-14T05:54:27.012Z,22.20
2022-08-14T05:55:22.625Z,22.28
2022-08-14T05:56:19.388Z,22.21
2022-08-14T05:57:19.368Z,22.30
2022-08-14T05:58:19.355Z,22.20
2022-08-14T05:59:19.425Z,22.28
2022-08-14T06:00:24.918Z,22.33
2022-08-14T06:01:19.368Z,22.22
2022-08-14T06:02:19.283Z,22.27
2022-08-14T06:03:19.264Z,22.37
2022-08-14T06:04:19.248Z,22.36
2022-08-14T06:05:23.297Z,22.42
2022-08-14T06:06:19.216Z,22.43
2022-08-14T06:07:19.198Z,22.36
2022-08-14T06:08:35.383Z,22.36
2022-08-14T06:09:19.167Z,22.52
2022-08-14T06:10:19.174Z,22.51
2022-08-14T06:11:20.237Z,22.49
2022-08-14T06:12:55.141Z,22.51
2022-08-14T06:13:19.089Z,22.47
2022-08-14T06:14:21.417Z,22.46
2022-08-14T06:15:19.062Z,22.46
2022-08-14T06:16:19.043Z,22.60
2022-08-14T06:17:25.769Z,22.62
2022-08-14T06:18:19.005Z,22.58
2022-08-14T06:19:18.988Z,22.60
2022-08-14T06:20:18.971Z,22.62
2022-08-14T06:21:18.953Z,22.58
2022-08-14T06:22:18.936Z,22.65
2022-08-14T06:23:18.917Z,22.65
2022-08-14T06:24:19.190Z,22.70
2022-08-14T06:25:19.524Z,22.72
2022-08-14T06:26:20.674Z,22.65
2022-08-14T06:27:18.851Z,22.72
2022-08-14T06:28:27.278Z,22.82
2022-08-14T06:29:18.814Z,22.77
2022-08-14T06:30:18.805Z,22.83
2022-08-14T06:31:18.781Z,22.79
2022-08-14T06:32:38.259Z,22.82
2022-08-14T06:33:18.745Z,22.88
2022-08-14T06:35:02.187Z,22.90
2022-08-14T06:35:18.715Z,22.95
2022-08-14T06:36:18.692Z,22.80
2022-08-14T06:37:18.674Z,22.94
2022-08-14T06:38:18.658Z,23.01
2022-08-14T06:39:18.656Z,23.02
2022-08-14T06:40:26.695Z,23.01
2022-08-14T06:41:20.753Z,23.04
2022-08-14T06:42:32.648Z,23.04
2022-08-14T06:43:18.573Z,23.15
2022-08-14T06:44:18.555Z,23.13
2022-08-14T06:45:18.537Z,23.15
2022-08-14T06:46:23.142Z,23.10
2022-08-14T06:47:18.502Z,23.19
2022-08-14T06:48:18.491Z,23.17
2022-08-14T06:49:18.471Z,23.15
2022-08-14T06:50:18.451Z,23.15
2022-08-14T06:51:18.436Z,23.15
2022-08-14T06:52:18.420Z,23.15
2022-08-14T06:53:18.399Z,23.20
2022-08-14T06:54:18.386Z,23.19
2022-08-14T06:55:21.653Z,23.22
2022-08-14T06:56:18.351Z,23.31
2022-08-14T06:57:18.331Z,23.35
2022-08-14T06:58:20.708Z,23.46
2022-08-14T06:59:19.891Z,23.51
2022-08-14T07:00:26.566Z,23.53
2022-08-14T07:01:23.160Z,23.61
2022-08-14T07:02:19.080Z,23.66
2022-08-14T07:03:19.337Z,23.76
2022-08-14T07:04:22.636Z,23.75
2022-08-14T07:05:21.157Z,23.68
2022-08-14T07:06:45.386Z,23.73
2022-08-14T07:07:18.158Z,23.76
2022-08-14T07:08:18.143Z,23.75
2022-08-14T07:09:23.037Z,23.87
2022-08-14T07:10:18.113Z,23.94
2022-08-14T07:11:18.088Z,23.93
2022-08-14T07:12:54.891Z,23.95
2022-08-14T07:13:18.063Z,24.02
2022-08-14T07:14:18.049Z,24.00
2022-08-14T07:15:18.022Z,24.02
2022-08-14T07:16:18.012Z,24.03
2022-08-14T07:17:17.991Z,24.09
2022-08-14T07:18:17.971Z,24.05
2022-08-14T07:19:17.963Z,24.16
2022-08-14T07:20:18.796Z,24.24
2022-08-14T07:21:17.922Z,24.25
2022-08-14T07:22:20.422Z,24.24
2022-08-14T07:23:20.623Z,24.37
2022-08-14T07:24:26.198Z,24.32
2022-08-14T07:25:17.849Z,24.37
2022-08-14T07:26:17.835Z,24.49
2022-08-14T07:27:17.818Z,24.50
2022-08-14T07:28:20.417Z,24.57
2022-08-14T07:29:20.679Z,24.65
2022-08-14T07:30:34.361Z,24.71
2022-08-14T07:31:17.754Z,24.77
2022-08-14T07:32:22.163Z,24.80
2022-08-14T07:33:17.716Z,24.83
2022-08-14T07:34:36.015Z,24.87
2022-08-14T07:35:17.684Z,24.93
2022-08-14T07:36:27.634Z,24.96
2022-08-14T07:37:17.649Z,24.93
2022-08-14T07:38:17.633Z,25.00
2022-08-14T07:39:17.674Z,25.06
2022-08-14T07:40:27.326Z,25.05
2022-08-14T07:41:17.584Z,25.13
2022-08-14T07:42:22.667Z,25.09
2022-08-14T07:43:17.548Z,25.18
2022-08-14T07:44:28.746Z,25.24
2022-08-14T07:45:17.517Z,25.18
2022-08-14T07:46:21.193Z,25.33
2022-08-14T07:47:17.483Z,25.32
2022-08-14T07:48:17.470Z,25.39
2022-08-14T07:49:17.738Z,25.46
2022-08-14T07:50:20.073Z,25.47
2022-08-14T07:51:17.420Z,25.55
2022-08-14T07:52:21.925Z,25.54
2022-08-14T07:53:17.394Z,25.55
2022-08-14T07:54:23.268Z,25.52
2022-08-14T07:55:21.136Z,25.70
2022-08-14T07:56:44.025Z,25.77
2022-08-14T07:57:22.421Z,25.85
2022-08-14T07:58:31.753Z,25.91
2022-08-14T07:59:17.296Z,25.91
2022-08-14T08:00:31.593Z,25.92
2022-08-14T08:01:17.257Z,25.99
2022-08-14T08:02:19.583Z,26.10
2022-08-14T08:03:17.325Z,26.26
2022-08-14T08:04:24.003Z,26.17
2022-08-14T08:05:17.199Z,26.25
2022-08-14T08:06:17.522Z,26.26
2022-08-14T08:07:17.174Z,26.39
2022-08-14T08:08:26.869Z,26.36
2022-08-14T08:09:17.128Z,26.36
2022-08-14T08:10:17.576Z,26.37
2022-08-14T08:11:17.104Z,26.40
2022-08-14T08:12:17.090Z,26.50
2022-08-14T08:13:17.083Z,26.55
2022-08-14T08:14:18.118Z,26.58
2022-08-14T08:15:17.041Z,26.58
2022-08-14T08:16:17.024Z,26.58
2022-08-14T08:17:17.015Z,26.54
2022-08-14T08:18:20.372Z,26.48
2022-08-14T08:19:16.977Z,26.44
2022-08-14T08:20:19.994Z,26.36
2022-08-14T08:21:17.988Z,26.52
2022-08-14T08:22:16.931Z,26.51
2022-08-14T08:23:20.518Z,26.54
2022-08-14T08:24:20.164Z,26.60
2022-08-14T08:25:18.041Z,26.69
2022-08-14T08:26:16.868Z,26.80
2022-08-14T08:27:16.860Z,26.82
2022-08-14T08:28:21.984Z,26.88
2022-08-14T08:29:16.825Z,27.00
2022-08-14T08:30:16.810Z,26.88
2022-08-14T08:31:16.791Z,26.82
2022-08-14T08:32:16.779Z,26.80
2022-08-14T08:33:16.759Z,26.80
2022-08-14T08:34:18.255Z,26.88
2022-08-14T08:35:16.732Z,26.89
2022-08-14T08:36:18.909Z,26.99
2022-08-14T08:37:16.709Z,27.04
2022-08-14T08:39:17.065Z,27.10
2022-08-14T08:39:22.288Z,27.06
2022-08-14T08:40:20.719Z,27.25
2022-08-14T08:41:16.645Z,27.24
2022-08-14T08:42:16.632Z,27.29
2022-08-14T08:43:16.610Z,27.22
2022-08-14T08:44:17.530Z,27.21
2022-08-14T08:45:17.183Z,27.22
2022-08-14T08:46:21.798Z,27.21
2022-08-14T08:47:16.562Z,27.29
2022-08-14T08:48:18.463Z,27.25
2022-08-14T08:49:16.528Z,27.40
2022-08-14T08:50:31.046Z,27.40
2022-08-14T08:51:16.493Z,27.47
2022-08-14T08:52:25.499Z,27.59
2022-08-14T08:53:16.469Z,27.63
2022-08-14T08:54:18.420Z,27.74
2022-08-14T08:55:16.441Z,27.77
2022-08-14T08:56:30.182Z,27.78
2022-08-14T08:57:16.404Z,27.87
2022-08-14T08:58:24.861Z,27.77
2022-08-14T08:59:16.376Z,27.79
2022-08-14T09:00:25.298Z,27.93
2022-08-14T09:01:16.459Z,27.79
2022-08-14T09:02:16.335Z,27.82
2022-08-14T09:03:16.323Z,27.72
2022-08-14T09:04:17.477Z,27.54
2022-08-14T09:05:16.287Z,27.47
2022-08-14T09:06:53.855Z,27.47
2022-08-14T09:07:16.265Z,27.47
2022-08-14T09:08:26.419Z,27.50
2022-08-14T09:09:16.232Z,27.46
2022-08-14T09:10:17.450Z,27.49
2022-08-14T09:11:19.138Z,27.70
2022-08-14T09:12:16.204Z,27.60
2022-08-14T09:13:16.173Z,27.66
2022-08-14T09:14:16.158Z,27.67
2022-08-14T09:15:16.145Z,27.70
2022-08-14T09:16:18.515Z,27.77
2022-08-14T09:17:16.115Z,27.79
2022-08-14T09:18:16.103Z,27.85
2022-08-14T09:19:16.089Z,27.84
2022-08-14T09:20:25.876Z,27.92
2022-08-14T09:21:16.160Z,27.88
2022-08-14T09:22:34.915Z,27.93
2022-08-14T09:23:16.872Z,28.03
2022-08-14T09:24:26.612Z,28.11
2022-08-14T09:25:16.005Z,28.11
2022-08-14T09:26:20.920Z,28.21
2022-08-14T09:27:22.287Z,28.21
2022-08-14T09:28:15.964Z,28.02
2022-08-14T09:29:15.941Z,28.02
2022-08-14T09:30:32.886Z,28.06
2022-08-14T09:31:17.561Z,28.12
2022-08-14T09:32:58.801Z,28.17
2022-08-14T09:33:16.074Z,28.06
2022-08-14T09:34:19.842Z,28.09
2022-08-14T09:35:15.860Z,28.11
2022-08-14T09:36:15.844Z,28.17
2022-08-14T09:37:15.834Z,28.21
2022-08-14T09:38:25.819Z,28.19
2022-08-14T09:39:22.808Z,28.19
2022-08-14T09:40:20.536Z,28.39
2022-08-14T09:41:15.773Z,28.48
2022-08-14T09:42:21.190Z,28.51
2022-08-14T09:43:15.746Z,28.48
2022-08-14T09:44:15.730Z,28.55
2022-08-14T09:45:15.731Z,28.46
2022-08-14T09:46:17.139Z,28.54
2022-08-14T09:47:15.689Z,28.51
2022-08-14T09:48:15.675Z,28.48
2022-08-14T09:49:16.747Z,28.48
2022-08-14T09:50:15.659Z,28.49
2022-08-14T09:51:15.640Z,28.36
2022-08-14T09:52:33.131Z,28.46
2022-08-14T09:53:18.090Z,28.51
2022-08-14T09:54:22.321Z,28.54
2022-08-14T09:55:15.579Z,28.48
2022-08-14T09:56:24.137Z,28.58
2022-08-14T09:57:15.552Z,28.59
2022-08-14T09:58:20.095Z,28.43
2022-08-14T09:59:16.121Z,28.48
2022-08-14T10:00:28.990Z,28.46
2022-08-14T10:01:15.494Z,28.46
2022-08-14T10:02:15.530Z,28.59
2022-08-14T10:03:15.520Z,28.77
2022-08-14T10:04:33.847Z,28.76
2022-08-14T10:05:15.441Z,28.83
2022-08-14T10:06:15.425Z,28.86
2022-08-14T10:07:15.411Z,28.83
2022-08-14T10:08:15.394Z,28.89
2022-08-14T10:09:16.743Z,28.95
2022-08-14T10:10:23.793Z,28.96
2022-08-14T10:11:15.354Z,28.93
2022-08-14T10:12:18.839Z,28.92
2022-08-14T10:13:15.331Z,28.86
2022-08-14T10:14:19.131Z,28.96
2022-08-14T10:15:15.305Z,28.93
2022-08-14T10:16:21.849Z,28.90
2022-08-14T10:17:15.272Z,28.88
2022-08-14T10:18:18.168Z,28.86
2022-08-14T10:19:15.966Z,28.76
2022-08-14T10:20:40.683Z,28.76
2022-08-14T10:21:15.230Z,28.85
2022-08-14T10:23:12.224Z,28.86
2022-08-14T10:23:23.056Z,28.85
2022-08-14T10:24:17.668Z,28.77
2022-08-14T10:25:15.509Z,28.80
2022-08-14T10:26:23.117Z,28.78
2022-08-14T10:27:15.137Z,28.83
2022-08-14T10:28:51.354Z,28.95
2022-08-14T10:29:18.455Z,29.06
2022-08-14T10:30:15.162Z,29.18
2022-08-14T10:31:15.098Z,29.16
2022-08-14T10:32:17.992Z,29.27
2022-08-14T10:33:15.053Z,29.21
2022-08-14T10:34:15.038Z,29.19
2022-08-14T10:35:15.170Z,29.23
2022-08-14T10:36:19.752Z,29.26
2022-08-14T10:37:15.235Z,29.30
2022-08-14T10:38:14.984Z,29.28
2022-08-14T10:39:14.974Z,29.37
2022-08-14T10:40:38.711Z,29.31
2022-08-14T10:41:14.995Z,29.34
2022-08-14T10:42:16.678Z,29.28
2022-08-14T10:43:14.919Z,29.39
2022-08-14T10:44:21.532Z,29.37
2022-08-14T10:45:14.893Z,29.53
2022-08-14T10:46:59.210Z,29.52
2022-08-14T10:47:39.944Z,29.60
2022-08-14T10:48:25.066Z,29.48
2022-08-14T10:49:14.839Z,29.51
2022-08-14T10:50:15.108Z,29.43
2022-08-14T10:51:14.818Z,29.36
2022-08-14T10:52:14.795Z,29.31
2022-08-14T10:53:15.275Z,29.27
2022-08-14T10:54:26.268Z,29.42
2022-08-14T10:55:14.763Z,29.28
2022-08-14T10:56:21.520Z,29.33
2022-08-14T10:57:14.730Z,29.37
2022-08-14T10:58:17.212Z,29.42
2022-08-14T10:59:14.707Z,29.37
2022-08-14T11:00:14.689Z,29.34
2022-08-14T11:01:14.688Z,29.39
2022-08-14T11:02:14.662Z,29.37
2022-08-14T11:03:19.813Z,29.41
2022-08-14T11:04:14.664Z,29.51
2022-08-14T11:05:14.880Z,29.52
2022-08-14T11:06:14.614Z,29.43
2022-08-14T11:07:16.883Z,29.43
2022-08-14T11:08:14.582Z,29.43
2022-08-14T11:09:16.977Z,29.37
2022-08-14T11:10:14.561Z,29.36
2022-08-14T11:11:14.544Z,29.34
2022-08-14T11:12:34.419Z,29.45
2022-08-14T11:13:14.520Z,29.57
2022-08-14T11:14:14.502Z,29.67
2022-08-14T11:15:14.490Z,29.76
2022-08-14T11:16:14.475Z,29.76
2022-08-14T11:17:14.465Z,29.86
2022-08-14T11:18:20.385Z,29.85
2022-08-14T11:19:14.437Z,29.63
2022-08-14T11:20:16.695Z,29.64
2022-08-14T11:21:14.411Z,29.63
2022-08-14T11:22:52.145Z,29.67
2022-08-14T11:23:14.389Z,29.82
2022-08-14T11:24:53.950Z,29.67
2022-08-14T11:25:14.365Z,29.58
2022-08-14T11:26:14.347Z,29.65
2022-08-14T11:27:14.331Z,29.58
2022-08-14T11:28:14.775Z,29.67
2022-08-14T11:29:14.304Z,29.65
2022-08-14T11:30:51.225Z,29.74
2022-08-14T11:31:14.278Z,29.70
2022-08-14T11:32:14.265Z,29.58
2022-08-14T11:33:14.252Z,29.63
2022-08-14T11:34:29.888Z,29.71
2022-08-14T11:35:14.230Z,29.60
2022-08-14T11:36:18.412Z,29.71
2022-08-14T11:37:18.725Z,29.73
2022-08-14T11:38:14.187Z,29.58
2022-08-14T11:39:14.170Z,29.70
2022-08-14T11:40:14.203Z,29.74
2022-08-14T11:41:14.148Z,29.73
2022-08-14T11:42:56.357Z,29.68
2022-08-14T11:43:14.800Z,29.73
2022-08-14T11:44:17.833Z,29.74
2022-08-14T11:45:17.203Z,29.82
2022-08-14T11:46:17.946Z,29.89
2022-08-14T11:47:14.070Z,29.85
2022-08-14T11:49:02.970Z,29.92
2022-08-14T11:49:18.831Z,29.95
2022-08-14T11:50:14.028Z,29.89
2022-08-14T11:51:14.018Z,30.00
2022-08-14T11:52:14.002Z,30.05
2022-08-14T11:53:13.989Z,29.98
2022-08-14T11:54:13.980Z,29.98
2022-08-14T11:55:13.965Z,29.98
2022-08-14T11:56:13.947Z,29.97
2022-08-14T11:57:13.938Z,29.95
2022-08-14T11:58:15.656Z,29.94
2022-08-14T11:59:13.911Z,29.98
2022-08-14T12:00:14.855Z,30.07
2022-08-14T12:01:13.886Z,30.11
2022-08-14T12:03:00.565Z,30.24
2022-08-14T12:03:14.894Z,30.34
2022-08-14T12:04:32.377Z,30.38
2022-08-14T12:05:13.898Z,30.37
2022-08-14T12:06:29.044Z,30.29
2022-08-14T12:07:13.809Z,30.17
2022-08-14T12:08:13.795Z,30.11
2022-08-14T12:09:14.905Z,30.15
2022-08-14T12:10:27.130Z,29.92
2022-08-14T12:11:13.755Z,30.00
2022-08-14T12:12:13.747Z,29.90
2022-08-14T12:13:13.728Z,29.89
2022-08-14T12:14:30.298Z,29.90
2022-08-14T12:15:13.709Z,30.04
2022-08-14T12:16:20.749Z,30.11
2022-08-14T12:17:13.719Z,30.17
2022-08-14T12:18:19.440Z,30.34
2022-08-14T12:19:13.649Z,30.32
2022-08-14T12:20:14.930Z,30.35
2022-08-14T12:21:15.861Z,30.37
2022-08-14T12:22:25.807Z,30.34
2022-08-14T12:23:13.596Z,30.31
2022-08-14T12:24:36.217Z,30.39
2022-08-14T12:25:13.569Z,30.37
2022-08-14T12:26:39.378Z,30.43
2022-08-14T12:27:13.547Z,30.43
2022-08-14T12:28:27.027Z,30.55
2022-08-14T12:29:13.521Z,30.67
2022-08-14T12:30:13.512Z,30.67
2022-08-14T12:31:13.494Z,30.67
2022-08-14T12:32:13.779Z,30.61
2022-08-14T12:33:13.470Z,30.70
2022-08-14T12:34:13.452Z,30.60
2022-08-14T12:35:13.441Z,30.69
2022-08-14T12:36:20.553Z,30.62
2022-08-14T12:37:13.415Z,30.62
2022-08-14T12:38:19.308Z,30.62
2022-08-14T12:39:13.393Z,30.80
2022-08-14T12:40:13.376Z,30.77
2022-08-14T12:41:20.623Z,30.89
2022-08-14T12:42:27.366Z,30.86
2022-08-14T12:43:14.167Z,30.79
2022-08-14T12:44:13.323Z,30.79
2022-08-14T12:45:17.361Z,30.77
2022-08-14T12:46:22.303Z,30.70
2022-08-14T12:47:15.057Z,30.69
2022-08-14T12:48:21.774Z,30.83
2022-08-14T12:49:13.272Z,30.65
2022-08-14T12:50:13.249Z,30.83
2022-08-14T12:51:13.237Z,30.82
2022-08-14T12:52:17.211Z,30.77